Auburn, NJ

5:34 PM EDT on October 21, 2014 (GMT -0400)
Chestnut Hill | Change Station
CLOSE
Current Station
Personal Weather Station
Location: Swedesboro, NJ
Elevation: 89 ft
Nearby Weather Stations

Elev 89 ft 39.74 °N, 75.31 °W | Updated 0 second ago

Partly Cloudy
Partly Cloudy
62.1 °F
Feels Like 62.1 °F
N
0.0
Wind Variable Wind from East
Gusts 0.0 mph

Today
High -- | Low -- °F
--% Chance of Precip.
Yesterday
High -- | Low -- °F
Precip. -- in
7:17 AM 6:13 PM
Waning Crescent, 4% visible
Pressure 29.81 in
Visibility 10.0 miles
Clouds Scattered Clouds 4500 ft
Scattered Clouds 8000 ft
Dew Point 52 °F
Humidity 70%
Rainfall 0.00 in
Snow Depth Not available.
UV 1 out of 12
Pollen .30 out of 12
Ozone Good
PM2.5 Moderate
Flu Activity Sporadic
METAR KPHL 212054Z 28004KT 10SM SCT045 SCT080 20/08 A2981 RMK AO2 SLP093 T02000078 56004 $

More Conditions Fewer Conditions

Pressure 29.81 in
Visibility 10.0 miles
Clouds Scattered Clouds 4500 ft
Scattered Clouds 8000 ft
Dew Point 52 °F
Humidity 70%
Rainfall 0.00 in
Snow Depth Not available.
UV 1 out of 12
Pollen .30 out of 12
Ozone Good
PM2.5 Moderate
Flu Activity Sporadic
METAR KPHL 212054Z 28004KT 10SM SCT045 SCT080 20/08 A2981 RMK AO2 SLP093 T02000078 56004 $

More Conditions Fewer Conditions

10-Day Weather Forecast

Almanac

Astronomy

Oct. 21, 2014 Rise Set
Actual Time 7:17 AM EDT 6:13 PM EDT
Civil Twilight 6:50 AM EDT 6:40 PM EDT
Nautical Twilight 6:18 AM EDT 7:12 PM EDT
Astronomical Twilight 5:47 AM EDT 7:43 PM EDT
Moon 5:00 AM EDT 5:05 PM EDT
Length of Visible Light 11h 50m
Length of Day
10h 55m
Tomorrow will be 2m 27s shorter.
Waning Crescent, 4% of the Moon is Illuminated
Today
Waning Crescent
Oct 23
New
Oct 30
First Quarter
Nov 6
Full
Nov 14
Last Quarter

Today's Extremes

State Highs State Lows

Community

WunderPhotos

Upload Photos

1,763,779 photos uploaded!

Nearby

Air Quality

  Air Quality AQ Index Pollutant
Yesterday Moderate
PM2.5
Yesterday Good
OZONE
Current Moderate
PM2.5
Current Good
OZONE
Tuesday Moderate
PM2.5
Wednesday Good
PM2.5
Thursday Good
PM2.5
Friday Good
PM2.5

Snow Depth

Station Depth Elevation
No new snow has been reported.

Earthquake Activity

City Distance Mag. Time & Date
No recent earthquake activity has been reported nearby.
Minimum magnitude displayed is 2.5.

Coastal Water Temperatures

Place Temperature
Cape May, NJ 68.0 °F
Reedy Point, DE 64.0 °F
Delaware City, DE 64.0 °F
Marcus Hook, PA 66.0 °F

Nearby Weather Stations